TimeCDT,TemperatureF,Dew PointF,Humidity,Sea Level PressureIn,VisibilityMPH,Wind Direction,Wind SpeedMPH,Gust SpeedMPH,PrecipitationIn,Events,Conditions,WindDirDegrees,DateUTC
12:15 AM,51.8,33.8,50,29.86,10.0,South,15.0,-,N/A,,Clear,190,2012-10-09 05:15:00
12:35 AM,51.8,33.8,50,29.85,10.0,South,13.8,-,N/A,,Clear,190,2012-10-09 05:35:00
12:55 AM,50.0,33.8,54,29.84,10.0,SSW,15.0,-,N/A,,Clear,200,2012-10-09 05:55:00
1:15 AM,48.2,33.8,58,29.84,10.0,SSW,13.8,-,N/A,,Clear,200,2012-10-09 06:15:00
1:55 AM,48.2,33.8,58,29.84,10.0,SSW,8.1,-,N/A,,Clear,200,2012-10-09 06:55:00
2:15 AM,46.4,33.8,62,29.84,10.0,SSW,8.1,-,N/A,,Clear,200,2012-10-09 07:15:00
2:55 AM,44.6,33.8,66,29.84,10.0,South,8.1,-,N/A,,Clear,180,2012-10-09 07:55:00
3:15 AM,42.8,33.8,70,29.83,10.0,South,5.8,-,N/A,,Clear,180,2012-10-09 08:15:00
3:35 AM,42.8,33.8,70,29.82,10.0,South,5.8,-,N/A,,Clear,170,2012-10-09 08:35:00
3:55 AM,39.2,32.0,75,29.81,10.0,South,6.9,-,N/A,,Clear,170,2012-10-09 08:55:00
4:15 AM,39.2,32.0,75,29.80,10.0,South,6.9,-,N/A,,Clear,180,2012-10-09 09:15:00
4:35 AM,39.2,30.2,70,29.80,10.0,South,3.5,-,N/A,,Clear,190,2012-10-09 09:35:00
4:55 AM,39.2,32.0,75,29.80,10.0,Calm,Calm,-,N/A,,Clear,0,2012-10-09 09:55:00
5:15 AM,39.2,32.0,75,29.79,10.0,South,4.6,-,N/A,,Clear,170,2012-10-09 10:15:00
5:35 AM,39.2,30.2,70,29.79,10.0,SSE,3.5,-,N/A,,Clear,160,2012-10-09 10:35:00
5:55 AM,39.2,32.0,75,29.79,10.0,South,4.6,-,N/A,,Clear,180,2012-10-09 10:55:00
6:15 AM,39.2,32.0,75,29.79,10.0,Calm,Calm,-,N/A,,Clear,0,2012-10-09 11:15:00
6:35 AM,41.0,33.8,76,29.80,10.0,Calm,Calm,-,N/A,,Clear,0,2012-10-09 11:35:00
6:55 AM,41.0,33.8,76,29.80,10.0,South,3.5,-,N/A,,Clear,190,2012-10-09 11:55:00
7:15 AM,37.4,28.4,70,29.82,10.0,Calm,Calm,-,N/A,,Clear,0,2012-10-09 12:15:00
7:35 AM,37.4,30.2,75,29.83,10.0,West,4.6,-,N/A,,Clear,280,2012-10-09 12:35:00
7:55 AM,35.6,30.2,81,29.84,10.0,NNW,8.1,-,N/A,,Clear,330,2012-10-09 12:55:00
8:15 AM,37.4,32.0,81,29.84,10.0,Calm,Calm,-,N/A,,Clear,0,2012-10-09 13:15:00
8:35 AM,39.2,33.8,81,29.85,10.0,NNW,3.5,-,N/A,,Clear,340,2012-10-09 13:35:00
8:55 AM,42.8,35.6,76,29.86,10.0,North,5.8,-,N/A,,Clear,360,2012-10-09 13:55:00
9:15 AM,44.6,35.6,71,29.86,10.0,North,3.5,-,N/A,,Clear,360,2012-10-09 14:15:00
9:35 AM,48.2,37.4,66,29.86,10.0,NNW,4.6,-,N/A,,Clear,340,2012-10-09 14:35:00
9:55 AM,50.0,37.4,62,29.88,10.0,NW,5.8,-,N/A,,Clear,310,2012-10-09 14:55:00
10:15 AM,53.6,39.2,58,29.89,10.0,NNW,11.5,-,N/A,,Clear,330,2012-10-09 15:15:00
10:35 AM,53.6,37.4,54,29.90,10.0,North,19.6,24.2,N/A,,Clear,350,2012-10-09 15:35:00
10:55 AM,53.6,37.4,54,29.92,10.0,North,19.6,23.0,N/A,,Clear,10,2012-10-09 15:55:00
11:15 AM,57.2,39.2,51,29.93,10.0,North,23.0,29.9,N/A,,Clear,10,2012-10-09 16:15:00
11:35 AM,55.4,37.4,51,29.94,10.0,NNE,26.5,34.5,N/A,,Clear,30,2012-10-09 16:35:00
11:55 AM,57.2,39.2,51,29.95,10.0,NNE,24.2,36.8,N/A,,Clear,30,2012-10-09 16:55:00
12:15 PM,57.2,39.2,51,29.95,10.0,NNE,29.9,34.5,N/A,,Clear,30,2012-10-09 17:15:00
12:35 PM,57.2,39.2,51,29.94,10.0,NNE,24.2,38.0,N/A,,Clear,30,2012-10-09 17:35:00
12:55 PM,57.2,39.2,51,30.00,10.0,NNE,19.6,33.4,N/A,,Partly Cloudy,30,2012-10-09 17:55:00
1:15 PM,59.0,39.2,48,29.98,10.0,NNE,19.6,31.1,N/A,,Mostly Cloudy,20,2012-10-09 18:15:00
1:35 PM,60.8,39.2,45,29.98,10.0,NNE,21.9,27.6,N/A,,Mostly Cloudy,20,2012-10-09 18:35:00
1:55 PM,59.0,37.4,45,29.99,10.0,North,27.6,31.1,N/A,,Mostly Cloudy,10,2012-10-09 18:55:00
2:15 PM,59.0,39.2,48,30.00,10.0,NNE,23.0,27.6,N/A,,Mostly Cloudy,20,2012-10-09 19:15:00
2:35 PM,59.0,37.4,45,30.00,10.0,North,20.7,27.6,N/A,,Mostly Cloudy,10,2012-10-09 19:35:00
2:55 PM,59.0,37.4,45,30.01,10.0,NNE,21.9,26.5,N/A,,Partly Cloudy,30,2012-10-09 19:55:00
3:15 PM,60.8,37.4,42,30.01,10.0,NNE,19.6,28.8,N/A,,Clear,20,2012-10-09 20:15:00
3:35 PM,60.8,37.4,42,30.02,10.0,NNE,21.9,27.6,N/A,,Clear,20,2012-10-09 20:35:00
3:55 PM,60.8,37.4,42,30.02,10.0,NNE,18.4,27.6,N/A,,Clear,20,2012-10-09 20:55:00
4:15 PM,60.8,37.4,42,30.03,10.0,NNE,21.9,26.5,N/A,,Clear,20,2012-10-09 21:15:00
4:35 PM,60.8,35.6,39,30.03,10.0,NNE,17.3,25.3,N/A,,Clear,20,2012-10-09 21:35:00
4:55 PM,60.8,35.6,39,30.03,10.0,NNE,17.3,-,N/A,,Clear,20,2012-10-09 21:55:00
5:15 PM,60.8,35.6,39,30.03,10.0,NNE,17.3,24.2,N/A,,Clear,30,2012-10-09 22:15:00
5:35 PM,60.8,33.8,36,30.04,10.0,North,17.3,20.7,N/A,,Clear,10,2012-10-09 22:35:00
5:55 PM,59.0,33.8,39,30.04,10.0,NNE,15.0,19.6,N/A,,Clear,30,2012-10-09 22:55:00
6:15 PM,59.0,32.0,36,30.05,10.0,NNE,15.0,-,N/A,,Clear,30,2012-10-09 23:15:00
6:35 PM,57.2,30.2,36,30.06,10.0,NNE,12.7,-,N/A,,Clear,30,2012-10-09 23:35:00
6:55 PM,55.4,28.4,36,30.07,10.0,NNE,12.7,-,N/A,,Clear,30,2012-10-09 23:55:00
7:15 PM,53.6,26.6,35,30.08,5.0,NNE,10.4,-,N/A,,Clear,30,2012-10-10 00:15:00
7:35 PM,51.8,26.6,38,30.09,10.0,NNE,9.2,-,N/A,,Clear,30,2012-10-10 00:35:00
7:55 PM,50.0,26.6,40,30.10,10.0,NNE,10.4,-,N/A,,Clear,30,2012-10-10 00:55:00
8:15 PM,50.0,24.8,37,30.11,10.0,NNE,9.2,-,N/A,,Clear,20,2012-10-10 01:15:00
8:35 PM,48.2,24.8,40,30.12,10.0,NNE,8.1,-,N/A,,Clear,20,2012-10-10 01:35:00
8:55 PM,46.4,23.0,40,30.13,10.0,NNE,9.2,-,N/A,,Clear,30,2012-10-10 01:55:00
9:15 PM,46.4,21.2,37,30.13,10.0,NNE,9.2,-,N/A,,Clear,30,2012-10-10 02:15:00
9:35 PM,44.6,23.0,43,30.14,10.0,NNE,8.1,-,N/A,,Clear,30,2012-10-10 02:35:00
9:55 PM,44.6,21.2,39,30.15,10.0,NNE,6.9,-,N/A,,Clear,30,2012-10-10 02:55:00
10:15 PM,42.8,23.0,46,30.17,10.0,NNW,4.6,-,N/A,,Clear,340,2012-10-10 03:15:00
10:35 PM,42.8,23.0,46,30.18,10.0,NW,5.8,-,N/A,,Clear,310,2012-10-10 03:35:00
10:55 PM,39.2,21.2,49,30.18,10.0,WNW,4.6,-,N/A,,Clear,290,2012-10-10 03:55:00
11:15 PM,37.4,21.2,52,30.19,10.0,WNW,4.6,-,N/A,,Clear,290,2012-10-10 04:15:00
11:35 PM,37.4,21.2,52,30.19,10.0,West,4.6,-,N/A,,Clear,280,2012-10-10 04:35:00
11:55 PM,37.4,23.0,56,30.20,10.0,West,3.5,-,N/A,,Clear,280,2012-10-10 04:55:00